Kezdőlap
METAR-TAF:

METAR-TAF

Repülőterek :

Plainview, Texas, Amerikai Egyesült Államok

földrajzi szélesség: 34-10-05N, földrajzi hosszúság: 101-43-02W, magasság: 1028 m

Jelenlegi meteorológiai megfigyelések

A jelentés 30 perccel ezelõtt készült, 02:35 UTC
Déli szél 7 kt
Hőmérséklet 24°C
Páratartalom 61%
Légköri nyomás 1020 hPa
Látótávolság: 16.1 km
Derült ég

METAR: KPVW 220235Z AUTO 17007KT 10SM CLR 24/16 A3013 RMK AO2 T02370155

Idő: 22:05 (03:05 UTC)

Előrejelzés

A jelentés 3 órával és 45 perccel ezelõtt készült, 23:20 UTC
Az előrejelzés 22-én 00 óra UTC és 22-én 24 óra UTC között érvényes
Déli szél 11 kt
Látótávolság: 10 km
Szórványos felhőzet 6000 lábon
Borult 10000 lábon
22-én 1400 órától UTC szerint
Dél-délnyugati szél 15 kt
Látótávolság: 10 km
Kevés felhő 20000 lábon

TAF: KPVW 212320Z 2200/2224 17011KT P6SM SCT060 OVC100 FM221400 21015KT P6SM FEW200

Meteorológiai megfigyelések és előrejelzések több, mint 4000 repülőtéren (METAR és TAF jelentéseket).

A térképen piros és sárga pontok jelzik az elérhető meteorológiai állomásokat.

Mozgassa az egeret a pont fölött, hogy megjelenjen az állomás neve.

Azután kattintson az időjárási megfigyelések és előrejelzések megtekintéséhez.

A térkép megváltoztatása: kattintson a fekete keresztel jelölt zöld gombra ráközelítéshez, a vonallal jelölt zöld gombra távolításhoz, vagy a zöld nyilakra a szomszédos térképek eléréséhez.


METAR-TAF: